Chville, Virginia
Current Conditions -  °F | °C
As of 7:12 PM on Sunday 23 Nov 2014 (Local Time) from KCHO Reporting Station
Light Rain Light Rain  
Wind Chill: 48°   Ceiling: 1300
Heat Index: 48°   Visibility: 6mi
Dew Point: 46°   Wind: 0mph
Humidity: 93%   Direction: NA
Pressure: 30"   Gusts: NA
Location:  38.0464°N, 78.4686°W
Report Text: KCHO 240012Z 00000KT 6SM -RA BR OVC013 09/08 A3000 RMK AO2 P0000 T00890078
Loading
Personal Weather Stations






























Interactive Weather Map New forecast layout! Learn more

10-Day Weather Forecast

Advertisements
Track Severe Weather on mobile